Time;durP1;ratioP1;P1;durP2;ratioP2;P2;SDS_P1;SDS_P2;PMS_P1;PMS_P2;Temp;Humidity;BMP_temperature;BMP_pressure;BME280_temperature;BME280_humidity;BME280_pressure;Samples;Min_cycle;Max_cycle;Signal;HPM_P1;HPM_P2
2023/07/16 00:00:22;;;;;;;;;;;23.50;99.90;;;23.66;64.32;98510.84;4984947;28;124191;-81
2023/07/16 00:02:48;;;;;;;;;;;23.50;99.80;;;23.61;64.65;98508.44;4988955;28;123916;-82
2023/07/16 00:05:14;;;;;;;;;;;23.50;99.90;;;23.54;64.42;98517.75;4987085;28;114450;-82
2023/07/16 00:07:41;;;;;;;;;;;23.40;99.90;;;23.48;64.60;98513.75;4984298;28;113604;-82
2023/07/16 00:10:07;;;;;;;;;;;23.40;99.90;;;23.47;64.48;98511.31;4987191;28;124541;-82
2023/07/16 00:12:36;;;;;;;;;;;23.30;99.90;;;23.49;64.56;98500.44;4990028;28;124131;-82
2023/07/16 00:15:02;;;;;;;;;;;23.30;99.90;;;23.51;64.45;98503.66;4971394;28;114004;-82
2023/07/16 00:17:29;;;;;;;;;;;23.40;99.90;;;23.51;64.24;98503.66;4990978;28;112797;-82
2023/07/16 00:19:55;;;;;;;;;;;23.30;99.90;;;23.47;64.13;98502.84;4991205;28;124322;-82
2023/07/16 00:22:21;;;;;;;;;;;23.20;99.90;;;23.45;64.27;98499.63;4987486;28;124754;-82
2023/07/16 00:24:50;;;;;;;;;;;23.30;99.90;;;23.43;64.09;98491.59;4973862;28;114146;-83
2023/07/16 00:27:18;;;;;;;;;;;23.20;99.90;;;23.41;63.96;98494.00;4993268;28;113517;-83
2023/07/16 00:29:44;;;;;;;;;;;23.20;99.80;;;23.40;64.19;98505.69;4987419;28;124435;-82
2023/07/16 00:32:11;;;;;;;;;;;23.20;99.90;;;23.44;64.31;98503.69;4988975;28;123780;-82
2023/07/16 00:34:39;;;;;;;;;;;23.20;99.90;;;23.47;64.08;98508.50;4990190;28;113738;-82
2023/07/16 00:37:05;;;;;;;;;;;23.20;99.90;;;23.52;64.07;98519.38;4993088;28;113498;-82
2023/07/16 00:39:32;;;;;;;;;;;23.20;99.90;;;23.63;63.98;98522.97;4973379;28;123646;-82
2023/07/16 00:41:58;;;;;;;;;;;23.30;99.90;;;23.70;64.17;98528.59;4987921;28;123925;-82
2023/07/16 00:44:24;;;;;;;;;;;23.30;99.90;;;23.75;63.75;98525.38;4989050;28;115504;-82
2023/07/16 00:46:51;;;;;;;;;;;23.40;99.90;;;23.80;63.86;98536.25;4975313;28;114618;-82
2023/07/16 00:49:17;;;;;;;;;;;23.40;99.90;;;23.86;63.69;98535.81;4987536;28;124221;-82
2023/07/16 00:51:44;;;;;;;;;;;23.50;99.90;;;23.90;63.18;98514.03;4987095;28;123168;-82
2023/07/16 00:54:11;;;;;;;;;;;23.50;99.90;;;23.94;63.07;98510.00;4990696;28;114405;-82
2023/07/16 00:56:37;;;;;;;;;;;23.50;99.90;;;23.99;63.51;98520.03;4980630;28;113994;-82
2023/07/16 00:59:06;;;;;;;;;;;23.60;99.90;;;24.04;63.41;98513.97;4987148;28;124167;-82
2023/07/16 01:01:32;;;;;;;;;;;23.60;99.90;;;24.08;63.32;98509.13;4988294;28;123290;-82
2023/07/16 01:03:58;;;;;;;;;;;23.70;99.90;;;24.11;63.13;98513.94;4988595;28;114395;-82
2023/07/16 01:06:35;;;;;;;;;;;23.70;99.90;;;24.12;63.22;98529.66;4989297;28;113678;-82
2023/07/16 01:09:18;;;;;;;;;;;23.70;99.90;;;24.11;63.14;98547.81;4985808;28;124348;-82
2023/07/16 01:11:48;;;;;;;;;;;23.70;99.90;;;24.10;63.16;98553.84;4977068;28;123898;-83
2023/07/16 01:14:16;;;;;;;;;;;23.70;99.90;;;24.06;63.06;98556.72;4980298;28;114483;-82
2023/07/16 01:16:45;;;;;;;;;;;23.70;99.80;;;24.02;62.91;98565.19;4988345;28;113945;-82
2023/07/16 01:19:13;;;;;;;;;;;23.70;99.70;;;24.01;62.88;98571.25;4976663;28;124170;-82
2023/07/16 01:21:52;;;;;;;;;;;23.70;99.70;;;23.97;63.15;98564.81;4978930;28;123935;-82
2023/07/16 01:24:47;;;;;;;;;;;23.70;99.70;;;23.92;62.78;98566.03;4987043;28;114616;-82
2023/07/16 01:27:55;;;;;;;;;;;23.70;99.70;;;23.87;63.02;98563.63;4969492;28;113473;-82
2023/07/16 01:30:22;;;;;;;;;;;23.60;99.60;;;23.81;62.25;98557.59;4990890;28;123999;-82
2023/07/16 01:32:48;;;;;;;;;;;23.60;99.30;;;23.78;62.15;98575.34;4989394;28;123476;-83
2023/07/16 01:35:15;;;;;;;;;;;23.50;98.90;;;23.73;61.38;98584.22;4988754;28;118383;-82
2023/07/16 01:37:42;;;;;;;;;;;23.50;98.50;;;23.70;61.35;98584.22;4987337;28;114014;-82
2023/07/16 01:40:09;;;;;;;;;;;23.50;98.40;;;23.67;60.88;98580.19;4986646;28;124851;-82
2023/07/16 01:42:35;;;;;;;;;;;23.40;98.10;;;23.63;60.65;98581.41;4970743;28;123145;-83
2023/07/16 01:45:01;;;;;;;;;;;23.40;97.90;;;23.60;60.63;98575.34;4972266;28;116472;-82
2023/07/16 01:47:46;;;;;;;;;;;23.40;97.90;;;23.55;60.60;98560.84;4988174;28;113677;-83
2023/07/16 01:50:13;;;;;;;;;;;23.30;97.80;;;23.53;60.22;98568.91;4989867;28;123875;-83
2023/07/16 01:52:41;;;;;;;;;;;23.30;97.60;;;23.49;59.91;98562.47;4988022;28;124694;-81
2023/07/16 01:55:08;;;;;;;;;;;23.30;97.40;;;23.44;59.59;98548.78;4991257;28;113860;-81
2023/07/16 01:57:34;;;;;;;;;;;23.20;97.20;;;23.40;59.44;98548.81;4991576;28;113590;-81
2023/07/16 02:00:00;;;;;;;;;;;23.20;97.00;;;23.34;59.08;98558.88;4986405;28;124643;-81
2023/07/16 02:02:26;;;;;;;;;;;23.20;96.80;;;23.27;58.62;98585.06;4988019;28;124324;-81
2023/07/16 02:04:55;;;;;;;;;;;23.10;96.50;;;23.18;58.67;98576.19;4989890;28;114028;-81
2023/07/16 02:07:23;;;;;;;;;;;23.00;96.30;;;23.10;58.71;98591.47;4991538;28;113591;-81
2023/07/16 02:09:50;;;;;;;;;;;23.00;96.30;;;23.06;58.70;98590.69;4986955;28;124565;-81
2023/07/16 02:12:16;;;;;;;;;;;22.90;96.20;;;23.02;58.74;98584.22;4987431;28;123760;-81
2023/07/16 02:14:42;;;;;;;;;;;22.90;96.30;;;22.99;58.92;98570.94;4986229;28;114482;-82
2023/07/16 02:17:08;;;;;;;;;;;22.80;96.30;;;22.99;58.93;98568.13;4979491;28;113700;-81
2023/07/16 02:19:37;;;;;;;;;;;22.80;96.20;;;22.96;58.59;98597.09;4979521;28;124623;-81
2023/07/16 02:22:06;;;;;;;;;;;22.80;96.10;;;22.96;58.34;98591.44;4976196;28;123948;-81
2023/07/16 02:24:32;;;;;;;;;;;22.80;96.10;;;22.93;58.22;98585.41;4988190;28;115467;-82
2023/07/16 02:26:58;;;;;;;;;;;22.70;95.90;;;22.88;58.21;98591.44;4985368;28;114357;-82
2023/07/16 02:29:24;;;;;;;;;;;22.70;95.90;;;22.85;58.34;98602.72;4985060;28;123885;-81
2023/07/16 02:31:50;;;;;;;;;;;22.70;95.80;;;22.83;58.30;98607.94;4985702;28;123846;-82
2023/07/16 02:34:17;;;;;;;;;;;22.70;95.90;;;22.78;58.37;98600.66;4982824;28;114358;-81
2023/07/16 02:36:43;;;;;;;;;;;22.60;95.70;;;22.74;58.45;98599.88;4989078;28;113341;-82
2023/07/16 02:39:09;;;;;;;;;;;22.60;95.80;;;22.72;58.58;98599.44;4987456;28;124095;-82
2023/07/16 02:41:36;;;;;;;;;;;22.50;96.00;;;22.66;58.82;98592.59;4986537;28;124321;-82
2023/07/16 02:44:08;;;;;;;;;;;22.50;96.10;;;22.57;58.57;98587.38;4986362;28;114381;-81
2023/07/16 02:46:34;;;;;;;;;;;22.40;96.00;;;22.50;58.44;98585.31;4989003;28;113965;-82
2023/07/16 02:49:02;;;;;;;;;;;22.40;95.90;;;22.43;58.35;98596.56;4990129;28;125360;-81
2023/07/16 02:51:28;;;;;;;;;;;22.20;95.60;;;22.37;58.18;98612.22;4988628;28;124577;-81
2023/07/16 02:53:55;;;;;;;;;;;22.20;95.60;;;22.35;58.63;98600.53;4990316;28;114357;-83
2023/07/16 02:56:21;;;;;;;;;;;22.20;95.70;;;22.37;58.72;98603.78;4979546;28;113736;-83
2023/07/16 02:58:47;;;;;;;;;;;22.10;95.80;;;22.36;58.38;98605.00;4990272;28;124186;-83
2023/07/16 03:01:14;;;;;;;;;;;22.20;95.80;;;22.37;58.61;98594.53;4988733;28;123947;-83
2023/07/16 03:03:40;;;;;;;;;;;22.10;95.70;;;22.39;58.46;98626.72;4990865;28;114371;-83
2023/07/16 03:06:07;;;;;;;;;;;22.10;95.70;;;22.36;57.86;98633.13;4991844;28;113870;-83
2023/07/16 03:08:34;;;;;;;;;;;22.10;95.50;;;22.29;57.43;98624.66;4991517;28;123826;-83
2023/07/16 03:11:00;;;;;;;;;;;22.00;95.30;;;22.22;57.76;98627.47;4990630;28;123897;-83
2023/07/16 03:13:27;;;;;;;;;;;22.00;95.20;;;22.14;57.62;98611.69;4988952;28;115541;-83
2023/07/16 03:15:55;;;;;;;;;;;21.90;95.00;;;22.06;57.40;98625.72;4982261;28;113009;-83
2023/07/16 03:18:30;;;;;;;;;;;21.90;95.00;;;21.98;57.51;98621.28;4982413;28;124268;-83
2023/07/16 03:20:57;;;;;;;;;;;21.80;95.00;;;21.93;58.15;98641.34;4985059;28;124448;-84
2023/07/16 03:23:24;;;;;;;;;;;21.80;95.20;;;21.89;57.93;98654.56;4988744;28;115136;-83
2023/07/16 03:25:51;;;;;;;;;;;21.70;95.20;;;21.88;57.96;98655.75;4984291;28;113799;-83
2023/07/16 03:28:17;;;;;;;;;;;21.70;95.10;;;21.89;57.88;98659.38;4988919;28;124809;-83
2023/07/16 03:30:48;;;;;;;;;;;21.70;95.10;;;21.92;57.27;98658.59;4989605;28;123616;-83
2023/07/16 03:33:14;;;;;;;;;;;21.70;95.00;;;21.98;57.83;98643.78;4966553;28;113611;-83
2023/07/16 03:35:45;;;;;;;;;;;21.70;95.10;;;22.05;57.02;98654.25;4984894;28;113910;-83
2023/07/16 03:38:12;;;;;;;;;;;21.80;94.90;;;22.03;56.64;98677.16;4981223;28;124114;-83
2023/07/16 03:40:41;;;;;;;;;;;21.70;94.60;;;22.05;56.56;98694.44;4973934;28;123732;-83
2023/07/16 03:43:07;;;;;;;;;;;21.80;94.60;;;22.08;56.46;98692.84;4992036;28;113871;-83
2023/07/16 03:45:34;;;;;;;;;;;21.80;94.50;;;22.11;55.75;98678.03;4990410;28;113779;-83
2023/07/16 03:48:00;;;;;;;;;;;21.80;94.30;;;22.12;55.90;98676.81;4989151;28;124205;-83
2023/07/16 03:50:26;;;;;;;;;;;21.80;94.20;;;22.13;55.43;98705.75;4971524;28;122752;-83
2023/07/16 03:52:53;;;;;;;;;;;21.80;94.00;;;22.10;55.41;98701.72;4980900;28;114297;-83
2023/07/16 03:55:21;;;;;;;;;;;21.80;93.90;;;22.05;55.66;98714.13;4991803;28;114339;-83
2023/07/16 03:57:50;;;;;;;;;;;21.80;93.90;;;22.04;55.76;98728.63;4958971;28;122916;-83
2023/07/16 04:00:16;;;;;;;;;;;21.70;93.90;;;21.99;55.78;98723.34;4989961;28;124568;-83
2023/07/16 04:02:43;;;;;;;;;;;21.70;93.80;;;21.98;55.81;98735.81;4990845;28;114288;-83
2023/07/16 04:05:11;;;;;;;;;;;21.70;93.90;;;21.97;55.59;98745.44;4990011;28;114608;-83
2023/07/16 04:07:38;;;;;;;;;;;21.70;94.00;;;21.95;55.83;98736.56;4988926;28;123932;-82
2023/07/16 04:10:05;;;;;;;;;;;21.60;94.00;;;21.91;56.19;98736.56;4989485;28;124386;-83
2023/07/16 04:12:31;;;;;;;;;;;21.60;94.00;;;21.86;56.31;98736.91;4993228;28;114330;-83
2023/07/16 04:14:58;;;;;;;;;;;21.60;94.10;;;21.80;56.62;98724.41;4988870;28;114174;-83
2023/07/16 04:17:25;;;;;;;;;;;21.60;94.10;;;21.78;56.56;98707.13;4990670;28;124226;-83
2023/07/16 04:19:53;;;;;;;;;;;21.60;94.20;;;21.79;57.13;98708.75;4990948;28;124561;-83
2023/07/16 04:22:19;;;;;;;;;;;21.60;94.40;;;21.81;56.73;98703.53;4988099;28;114434;-83
2023/07/16 04:24:46;;;;;;;;;;;21.60;94.50;;;21.81;56.92;98709.94;4989218;28;113705;-83
2023/07/16 04:27:12;;;;;;;;;;;21.60;94.50;;;21.82;56.93;98699.53;4990660;28;123453;-83
2023/07/16 04:29:38;;;;;;;;;;;21.60;94.50;;;21.84;57.21;98714.81;4988601;28;124206;-83
2023/07/16 04:32:07;;;;;;;;;;;21.60;94.60;;;21.87;56.84;98741.38;4973972;28;114453;-83
2023/07/16 04:34:34;;;;;;;;;;;21.60;94.60;;;21.86;56.88;98727.69;4997607;28;114405;-83
2023/07/16 04:37:00;;;;;;;;;;;21.60;94.50;;;21.85;56.95;98749.38;4984688;28;124130;-83
2023/07/16 04:39:26;;;;;;;;;;;21.60;94.50;;;21.84;57.23;98761.81;4982256;28;123909;-83
2023/07/16 04:41:54;;;;;;;;;;;21.60;94.60;;;21.83;56.88;98763.00;4988202;28;114064;-83
2023/07/16 04:44:21;;;;;;;;;;;21.60;94.60;;;21.83;57.18;98758.19;4986724;28;113469;-83
2023/07/16 04:46:47;;;;;;;;;;;21.60;94.70;;;21.86;57.30;98778.31;4980494;28;125488;-83
2023/07/16 04:49:15;;;;;;;;;;;21.60;94.70;;;21.87;57.25;98777.94;4978531;28;122883;-83
2023/07/16 04:51:42;;;;;;;;;;;21.60;94.70;;;21.88;57.28;98771.09;4984354;28;115885;-83
2023/07/16 04:54:08;;;;;;;;;;;21.60;94.80;;;21.86;57.48;98770.66;4988644;28;115097;-83
2023/07/16 04:56:35;;;;;;;;;;;21.60;95.00;;;21.82;57.48;98761.41;4979644;28;125822;-83
2023/07/16 04:59:01;;;;;;;;;;;21.60;95.10;;;21.82;58.00;98772.66;4987308;28;124674;-83
2023/07/16 05:01:27;;;;;;;;;;;21.50;95.10;;;21.83;58.32;98757.38;4990594;28;113473;-83
2023/07/16 05:03:54;;;;;;;;;;;21.50;95.30;;;21.84;58.37;98767.44;4988342;28;113838;-83
2023/07/16 05:06:20;;;;;;;;;;;21.50;95.50;;;21.82;58.92;98761.41;4987171;28;124573;-83
2023/07/16 05:08:46;;;;;;;;;;;21.60;95.70;;;21.78;58.82;98764.16;4972483;28;123598;-83
2023/07/16 05:11:12;;;;;;;;;;;21.50;96.00;;;21.75;59.08;98779.00;4984347;28;115028;-83
2023/07/16 05:13:39;;;;;;;;;;;21.50;95.80;;;21.73;59.15;98775.78;4990341;28;113602;-83
2023/07/16 05:16:05;;;;;;;;;;;21.50;95.80;;;21.68;59.01;98781.78;4992877;28;124120;-83
2023/07/16 05:18:31;;;;;;;;;;;21.50;95.80;;;21.67;59.00;98782.16;4990748;28;124981;-83
2023/07/16 05:21:00;;;;;;;;;;;21.40;95.80;;;21.65;59.12;98767.66;4973173;28;113444;-83
2023/07/16 05:23:27;;;;;;;;;;;21.40;95.90;;;21.65;58.93;98785.34;4990619;28;113438;-83
2023/07/16 05:25:53;;;;;;;;;;;21.40;95.80;;;21.66;58.86;98772.13;4988118;28;124763;-83
2023/07/16 05:28:19;;;;;;;;;;;21.40;95.70;;;21.65;58.53;98779.72;4986748;28;123864;-83
2023/07/16 05:30:45;;;;;;;;;;;21.40;95.70;;;21.63;58.51;98776.50;4986538;28;115593;-83
2023/07/16 05:33:12;;;;;;;;;;;21.40;95.60;;;21.61;58.30;98776.88;4988279;28;113819;-83
2023/07/16 05:35:41;;;;;;;;;;;21.30;95.60;;;21.58;58.36;98780.47;4987876;28;124661;-83
2023/07/16 05:38:07;;;;;;;;;;;21.30;95.50;;;21.58;58.32;98793.72;4990126;28;123269;-83
2023/07/16 05:40:34;;;;;;;;;;;21.30;95.60;;;21.59;58.24;98798.94;4988815;28;114560;-83
2023/07/16 05:43:00;;;;;;;;;;;21.30;95.60;;;21.63;58.70;98813.06;4988844;28;114800;-84
2023/07/16 05:45:28;;;;;;;;;;;21.30;95.60;;;21.65;58.25;98799.41;4979698;28;124047;-83
2023/07/16 05:47:55;;;;;;;;;;;21.30;95.60;;;21.70;58.67;98803.88;4985978;28;123564;-83
2023/07/16 05:50:24;;;;;;;;;;;21.40;95.70;;;21.76;58.51;98820.03;4982307;28;114462;-87
2023/07/16 05:52:50;;;;;;;;;;;21.60;95.80;;;21.84;58.37;98823.69;4976361;28;114655;-83
2023/07/16 05:55:17;;;;;;;;;;;21.40;95.90;;;21.89;58.57;98822.53;4987075;28;124565;-84
2023/07/16 05:57:43;;;;;;;;;;;21.50;95.90;;;21.91;58.47;98823.75;4972765;28;124770;-84
2023/07/16 06:00:11;;;;;;;;;;;21.50;95.90;;;21.91;58.46;98801.25;4985171;28;114117;-82
2023/07/16 06:02:37;;;;;;;;;;;21.50;95.90;;;21.93;58.75;98807.31;4987584;28;113640;-83
2023/07/16 06:05:04;;;;;;;;;;;21.60;96.00;;;21.96;58.62;98808.53;4988639;28;123945;-84
2023/07/16 06:07:31;;;;;;;;;;;21.60;96.00;;;21.97;58.66;98801.69;4972762;28;123780;-83
2023/07/16 06:09:58;;;;;;;;;;;21.60;95.90;;;21.97;58.37;98802.50;4996343;28;114589;-83
2023/07/16 06:12:24;;;;;;;;;;;21.60;95.80;;;21.98;58.34;98795.69;4989891;28;111937;-83
2023/07/16 06:14:50;;;;;;;;;;;21.70;95.80;;;21.98;58.02;98801.31;4985397;28;124127;-83
2023/07/16 06:17:17;;;;;;;;;;;21.60;95.60;;;21.96;58.07;98817.78;4986914;28;123629;-81
2023/07/16 06:19:43;;;;;;;;;;;21.70;95.60;;;21.97;57.89;98833.47;4988714;28;114409;-82
2023/07/16 06:22:09;;;;;;;;;;;21.70;95.60;;;21.99;57.88;98817.00;4988119;28;113742;-81
2023/07/16 06:24:38;;;;;;;;;;;21.70;95.60;;;21.99;57.75;98822.63;4972679;28;124222;-82
2023/07/16 06:27:04;;;;;;;;;;;21.60;95.50;;;22.00;57.89;98812.19;4988935;28;123072;-82
2023/07/16 06:29:30;;;;;;;;;;;21.70;95.50;;;21.99;57.87;98805.75;4989310;28;114245;-81
2023/07/16 06:31:58;;;;;;;;;;;21.70;95.40;;;22.04;57.59;98819.47;4986127;28;114885;-81
2023/07/16 06:34:25;;;;;;;;;;;21.70;95.40;;;22.06;57.68;98822.69;4986286;28;123471;-83
2023/07/16 06:36:51;;;;;;;;;;;21.70;95.30;;;22.08;57.11;98813.03;4985720;28;124351;-83
2023/07/16 06:39:17;;;;;;;;;;;21.70;95.20;;;22.11;57.37;98806.63;4987753;28;114560;-83
2023/07/16 06:41:43;;;;;;;;;;;21.80;95.20;;;22.14;57.49;98811.47;4986561;28;113644;-83
2023/07/16 06:44:10;;;;;;;;;;;21.80;95.20;;;22.17;57.20;98805.91;4985670;28;124075;-83
2023/07/16 06:46:36;;;;;;;;;;;22.70;95.50;;;22.23;56.97;98809.19;4987890;28;124084;-81
2023/07/16 06:49:04;;;;;;;;;;;21.80;95.10;;;22.29;56.98;98813.25;4986236;28;114237;-83
2023/07/16 06:51:32;;;;;;;;;;;21.90;95.00;;;22.35;56.69;98814.50;4972660;28;112762;-82
2023/07/16 06:54:01;;;;;;;;;;;21.90;95.00;;;22.41;56.53;98809.31;4986534;28;124266;-84
2023/07/16 06:56:27;;;;;;;;;;;22.00;95.20;;;22.43;56.25;98810.56;4985953;28;123876;-83
2023/07/16 06:58:54;;;;;;;;;;;22.00;94.70;;;22.42;56.02;98803.28;4986545;28;113400;-82
2023/07/16 07:01:20;;;;;;;;;;;22.00;94.40;;;22.44;55.80;98808.53;4987312;28;113694;-84
2023/07/16 07:03:46;;;;;;;;;;;22.00;94.30;;;22.45;55.73;98821.41;4978649;28;125476;-82
2023/07/16 07:06:13;;;;;;;;;;;22.10;94.30;;;22.50;55.49;98813.41;4983004;28;124328;-83
2023/07/16 07:08:39;;;;;;;;;;;22.10;94.20;;;22.57;55.45;98817.44;4972378;28;113633;-82
2023/07/16 07:11:05;;;;;;;;;;;22.10;94.10;;;22.64;54.98;98817.50;4979937;28;113677;-83
2023/07/16 07:13:32;;;;;;;;;;;22.20;94.00;;;22.73;54.71;98823.59;4985910;28;124542;-82
2023/07/16 07:15:58;;;;;;;;;;;22.20;93.90;;;22.82;54.13;98811.97;4984589;28;124304;-78
2023/07/16 07:18:24;;;;;;;;;;;22.30;93.70;;;22.89;54.15;98812.81;4988814;28;115635;-83
2023/07/16 07:20:51;;;;;;;;;;;22.40;93.60;;;23.01;53.91;98810.88;4986583;28;114621;-82
2023/07/16 07:23:17;;;;;;;;;;;22.40;93.60;;;23.13;53.46;98807.69;4987779;28;123323;-82
2023/07/16 07:25:51;;;;;;;;;;;22.50;93.40;;;23.20;52.92;98804.91;4971981;28;122996;-80
2023/07/16 07:28:18;;;;;;;;;;;22.60;93.00;;;23.28;51.72;98798.09;4986249;28;114442;-80
2023/07/16 07:30:44;;;;;;;;;;;22.70;92.40;;;23.35;51.34;98806.59;4984949;28;113821;-77
2023/07/16 07:33:11;;;;;;;;;;;22.80;92.20;;;23.37;50.63;98815.47;4987547;28;124028;-80
2023/07/16 07:35:37;;;;;;;;;;;22.80;91.60;;;23.36;50.54;98813.03;4990189;28;124505;-76
2023/07/16 07:38:04;;;;;;;;;;;22.80;91.40;;;23.28;50.63;98829.13;4980367;28;114454;-78
2023/07/16 07:40:33;;;;;;;;;;;22.80;91.20;;;23.22;50.15;98825.06;4987918;28;113763;-78
2023/07/16 07:43:15;;;;;;;;;;;22.80;90.80;;;23.21;49.75;98823.44;4987972;28;124586;-77
2023/07/16 07:45:47;;;;;;;;;;;22.80;90.50;;;23.16;49.24;98826.66;4982119;28;124300;-77
2023/07/16 07:48:40;;;;;;;;;;;23.70;90.40;;;22.97;49.42;98829.78;4984326;28;113031;-77
2023/07/16 07:51:12;;;;;;;;;;;22.60;89.90;;;22.87;49.81;98815.22;4961397;28;113220;-78
2023/07/16 07:54:07;;;;;;;;;;;22.50;90.00;;;22.76;50.10;98819.19;4980922;28;125053;-78
2023/07/16 07:57:11;;;;;;;;;;;22.40;90.10;;;22.82;50.01;98835.31;4990794;28;123898;-77
2023/07/16 07:59:43;;;;;;;;;;;22.40;90.30;;;22.82;49.87;98821.22;4952830;28;113394;-77
2023/07/16 08:02:27;;;;;;;;;;;22.40;90.20;;;22.82;50.16;98840.94;4980845;28;114346;-78
2023/07/16 08:04:54;;;;;;;;;;;22.40;90.30;;;22.94;49.75;98840.63;4984373;28;124246;-80
2023/07/16 08:07:29;;;;;;;;;;;22.50;90.10;;;23.00;49.58;98835.44;4976251;28;124457;-79
2023/07/16 08:09:58;;;;;;;;;;;22.50;90.20;;;23.04;49.56;98838.28;4997726;28;115580;-79
2023/07/16 08:12:31;;;;;;;;;;;22.60;90.20;;;23.04;49.54;98844.72;4980637;28;114664;-80
2023/07/16 08:18:21;;;;;;;;;;;22.60;89.40;;;22.97;48.71;98833.44;4971084;28;123806;-78
2023/07/16 08:21:03;;;;;;;;;;;22.50;88.80;;;23.00;48.99;98828.97;4966809;28;114068;-78
2023/07/16 08:23:45;;;;;;;;;;;22.60;89.00;;;23.04;48.84;98821.38;4986270;28;113782;-78
2023/07/16 08:26:17;;;;;;;;;;;22.60;88.70;;;23.14;48.44;98834.72;4983006;28;124063;-78
2023/07/16 08:29:01;;;;;;;;;;;22.70;89.00;;;23.21;48.74;98823.44;4946198;28;122824;-77
2023/07/16 08:31:30;;;;;;;;;;;22.80;88.70;;;23.30;48.15;98815.44;4985889;28;114838;-76
2023/07/16 08:33:59;;;;;;;;;;;22.80;88.10;;;23.37;47.85;98801.38;4985763;28;113700;-78
2023/07/16 08:36:26;;;;;;;;;;;22.90;87.80;;;23.45;47.76;98793.72;4989102;28;124102;-77
2023/07/16 08:39:32;;;;;;;;;;;23.00;87.50;;;23.53;47.25;98800.97;4984989;28;127859;-77
2023/07/16 08:42:01;;;;;;;;;;;23.10;86.90;;;23.59;45.19;98826.81;4982567;28;113854;-80
2023/07/16 08:44:34;;;;;;;;;;;23.10;84.00;;;23.57;44.76;98813.09;4960251;28;113408;-79
2023/07/16 08:47:16;;;;;;;;;;;23.10;83.00;;;23.58;44.66;98813.88;4970158;28;124293;-77
2023/07/16 08:50:08;;;;;;;;;;;23.10;82.50;;;23.69;45.11;98826.00;4978551;28;123994;-77
2023/07/16 08:52:56;;;;;;;;;;;23.20;83.20;;;23.83;44.60;98816.81;4994601;28;113855;-78
2023/07/16 08:56:14;;;;;;;;;;;23.30;82.70;;;23.92;44.46;98824.88;4981419;28;113730;-78
2023/07/16 08:58:47;;;;;;;;;;;23.40;82.50;;;24.01;44.01;98825.25;4974270;28;124935;-78
2023/07/16 09:01:29;;;;;;;;;;;23.50;81.40;;;24.14;44.09;98820.84;4981722;28;123692;-78
2023/07/16 09:04:04;;;;;;;;;;;23.60;81.80;;;24.33;43.90;98830.91;4985880;28;114665;-78
2023/07/16 09:07:24;;;;;;;;;;;23.70;82.20;;;24.47;43.50;98835.75;4980438;28;114903;-77
2023/07/16 09:10:11;;;;;;;;;;;23.80;80.50;;;24.59;42.82;98824.06;4979830;28;123476;-77
2023/07/16 09:12:52;;;;;;;;;;;24.00;79.90;;;24.64;42.22;98823.66;4981326;28;123828;-78
2023/07/16 09:15:21;;;;;;;;;;;24.10;78.70;;;24.68;41.84;98813.13;4984582;28;113463;-77
2023/07/16 09:17:53;;;;;;;;;;;24.20;78.00;;;24.74;42.07;98812.72;4979609;28;113773;-77
2023/07/16 09:23:42;;;;;;;;;;;24.30;77.60;;;24.85;41.39;98810.66;4978360;28;124449;-77
2023/07/16 09:26:09;;;;;;;;;;;24.30;76.50;;;24.87;41.42;98819.53;4959863;28;114258;-77
2023/07/16 09:28:35;;;;;;;;;;;24.40;76.40;;;24.95;41.41;98818.28;4980535;28;113968;-78
2023/07/16 09:31:06;;;;;;;;;;;24.50;76.60;;;25.07;41.04;98823.53;4970843;28;125467;-77
2023/07/16 09:33:35;;;;;;;;;;;24.60;76.30;;;25.16;40.54;98825.13;4985837;28;124169;-78
2023/07/16 09:36:02;;;;;;;;;;;24.60;75.20;;;25.17;41.05;98821.88;4985837;28;114476;-78
2023/07/16 09:38:29;;;;;;;;;;;24.70;75.50;;;25.19;40.35;98815.81;4977680;28;113727;-78
2023/07/16 09:40:56;;;;;;;;;;;24.70;74.90;;;25.14;40.03;98817.81;4986331;28;124354;-76
2023/07/16 09:43:22;;;;;;;;;;;24.70;74.40;;;25.03;40.29;98821.91;4984152;28;124231;-77
2023/07/16 09:45:48;;;;;;;;;;;24.60;73.40;;;24.97;40.14;98827.19;4989302;28;114238;-77
2023/07/16 09:48:17;;;;;;;;;;;24.60;73.40;;;24.96;40.71;98819.94;4986988;28;112732;-77
2023/07/16 09:50:51;;;;;;;;;;;24.60;73.50;;;25.03;40.51;98825.53;4989125;28;124272;-77
2023/07/16 09:53:19;;;;;;;;;;;24.60;73.60;;;25.08;40.23;98816.63;4986290;28;123580;-77
2023/07/16 09:55:48;;;;;;;;;;;24.70;73.60;;;25.17;40.33;98813.38;4985480;28;116174;-76
2023/07/16 09:58:19;;;;;;;;;;;24.70;73.60;;;25.23;40.32;98811.78;4988896;28;113192;-76
2023/07/16 10:00:45;;;;;;;;;;;24.80;73.10;;;25.25;39.96;98811.34;4982281;28;124478;-77
2023/07/16 10:03:12;;;;;;;;;;;24.80;73.10;;;25.27;40.06;98804.06;4985701;28;123687;-76
2023/07/16 10:05:40;;;;;;;;;;;24.80;72.70;;;25.31;39.95;98804.06;4987556;28;115149;-78
2023/07/16 10:08:16;;;;;;;;;;;24.90;73.00;;;25.29;39.35;98810.13;4986572;28;113603;-77
2023/07/16 10:10:53;;;;;;;;;;;24.80;71.80;;;25.26;40.24;98816.59;4988528;28;123426;-78
2023/07/16 10:13:24;;;;;;;;;;;24.90;72.20;;;25.23;39.30;98802.47;4986306;28;123975;-77
2023/07/16 10:15:55;;;;;;;;;;;24.90;71.30;;;25.19;39.78;98815.81;4986212;28;114618;-77
2023/07/16 10:18:25;;;;;;;;;;;24.90;71.20;;;25.16;39.03;98816.66;4985585;28;115604;-77
2023/07/16 10:20:53;;;;;;;;;;;24.80;70.50;;;25.17;39.51;98815.41;4990025;28;124110;-77
2023/07/16 10:23:20;;;;;;;;;;;24.80;70.70;;;25.23;39.15;98811.78;4988601;28;123547;-78
2023/07/16 10:26:10;;;;;;;;;;;24.90;70.60;;;25.27;39.05;98804.06;4987619;28;114910;-76
2023/07/16 10:28:37;;;;;;;;;;;24.90;70.00;;;25.31;38.92;98813.34;4984720;28;114028;-77
2023/07/16 10:31:08;;;;;;;;;;;24.90;69.90;;;25.32;38.48;98800.81;4985452;28;124846;-76
2023/07/16 10:33:37;;;;;;;;;;;25.00;69.40;;;25.37;39.28;98798.78;4984175;28;124112;-76
2023/07/16 10:36:03;;;;;;;;;;;25.00;69.80;;;25.44;38.99;98796.72;4986079;28;114373;-77
2023/07/16 10:38:32;;;;;;;;;;;25.10;69.90;;;25.49;38.94;98798.28;4982696;28;112895;-75
2023/07/16 10:40:58;;;;;;;;;;;26.40;70.60;;;25.48;38.84;98791.81;4969050;28;124307;-75
2023/07/16 10:43:25;;;;;;;;;;;25.10;69.20;;;25.44;39.09;98791.06;4968106;28;122774;-76
2023/07/16 10:45:51;;;;;;;;;;;25.10;69.30;;;25.41;38.88;98786.19;4987892;28;114416;-76
2023/07/16 10:48:17;;;;;;;;;;;25.10;69.40;;;25.41;38.83;98780.53;4982609;28;114735;-76
2023/07/16 10:50:44;;;;;;;;;;;25.10;68.70;;;25.40;38.31;98790.25;4988028;28;124224;-78
2023/07/16 10:53:11;;;;;;;;;;;25.10;67.60;;;25.38;38.07;98781.38;4986094;28;124341;-77
2023/07/16 10:55:40;;;;;;;;;;;25.10;67.20;;;25.35;38.39;98785.84;4954778;28;114100;-78
2023/07/16 10:58:07;;;;;;;;;;;25.10;67.30;;;25.37;38.31;98788.25;4983639;28;113741;-77
2023/07/16 11:00:37;;;;;;;;;;;25.10;67.30;;;25.35;37.95;98788.66;4969566;28;124252;-76
2023/07/16 11:03:06;;;;;;;;;;;25.10;67.30;;;25.32;38.30;98780.22;4982784;28;122357;-76
2023/07/16 11:05:32;;;;;;;;;;;25.00;67.20;;;25.33;37.61;98781.81;4973244;28;114342;-77
2023/07/16 11:08:01;;;;;;;;;;;25.00;66.70;;;25.36;37.84;98775.31;4988373;28;113436;-76
2023/07/16 11:10:30;;;;;;;;;;;25.00;66.90;;;25.41;38.06;98782.56;4991169;28;123557;-77
2023/07/16 11:12:58;;;;;;;;;;;25.10;66.70;;;25.46;37.76;98782.13;4990642;28;122899;-77
2023/07/16 11:15:34;;;;;;;;;;;25.00;66.10;;;25.46;37.99;98782.94;4975937;28;115003;-79
2023/07/16 11:18:03;;;;;;;;;;;25.00;66.80;;;25.51;38.26;98785.34;4988685;28;114125;-82
2023/07/16 11:20:30;;;;;;;;;;;25.10;67.10;;;25.56;37.91;98776.41;4986522;28;124825;-77
2023/07/16 11:23:00;;;;;;;;;;;25.10;67.10;;;25.63;37.83;98774.75;4991338;28;123133;-77
2023/07/16 11:25:27;;;;;;;;;;;25.20;67.20;;;25.69;37.80;98771.06;4985904;28;114565;-78